createdAt,value
2023-01-06T00:01:35.073Z,96979.91
2023-01-06T00:04:07.219Z,96980.91
2023-01-06T00:06:35.612Z,96981.88
2023-01-06T00:09:05.814Z,96977.53
2023-01-06T00:11:34.873Z,96973.94
2023-01-06T00:14:04.631Z,96967.97
2023-01-06T00:16:33.011Z,96972.25
2023-01-06T00:19:04.751Z,96968.94
2023-01-06T00:21:33.115Z,96968.78
2023-01-06T00:24:01.488Z,96967.28
2023-01-06T00:26:30.045Z,96970.09
2023-01-06T00:28:58.731Z,96968.59
2023-01-06T00:31:28.588Z,96971.50
2023-01-06T00:33:58.126Z,96960.38
2023-01-06T00:36:26.729Z,96962.34
2023-01-06T00:38:55.339Z,96966.28
2023-01-06T00:41:41.626Z,96951.69
2023-01-06T00:44:10.204Z,96953.38
2023-01-06T00:46:40.000Z,96949.03
2023-01-06T00:49:08.422Z,96950.88
2023-01-06T00:51:38.415Z,96942.94
2023-01-06T00:54:07.335Z,96948.66
2023-01-06T00:56:37.585Z,96938.41
2023-01-06T00:59:06.443Z,96940.22
2023-01-06T01:01:35.700Z,96936.56
2023-01-06T01:04:05.864Z,96931.44
2023-01-06T01:06:34.674Z,96940.38
2023-01-06T01:09:04.047Z,96943.84
2023-01-06T01:11:50.654Z,96939.38
2023-01-06T01:14:20.563Z,96939.69
2023-01-06T01:16:48.943Z,96939.69
2023-01-06T01:19:19.316Z,96941.66
2023-01-06T01:21:47.717Z,96950.41
2023-01-06T01:24:16.312Z,96943.63
2023-01-06T01:26:45.230Z,96943.44
2023-01-06T01:29:15.411Z,96943.31
2023-01-06T01:31:44.289Z,96935.50
2023-01-06T01:34:14.125Z,96936.66
2023-01-06T01:36:45.167Z,96938.63
2023-01-06T01:39:15.105Z,96935.16
2023-01-06T01:41:43.899Z,96930.00
2023-01-06T01:45:03.995Z,96927.66
2023-01-06T01:47:43.263Z,96911.25
2023-01-06T01:50:17.221Z,96918.69
2023-01-06T01:52:49.147Z,96919.13
2023-01-06T01:55:18.325Z,96916.94
2023-01-06T01:57:51.765Z,96914.03
2023-01-06T02:00:20.674Z,96917.41
2023-01-06T02:02:49.659Z,96910.25
2023-01-06T02:05:23.317Z,96906.41
2023-01-06T02:07:57.392Z,96899.72
2023-01-06T02:10:26.488Z,96901.00
2023-01-06T02:13:00.181Z,96896.03
2023-01-06T02:15:30.774Z,96894.34
2023-01-06T02:18:42.182Z,96895.34
2023-01-06T02:21:21.420Z,96886.06
2023-01-06T02:24:29.892Z,96890.66
2023-01-06T02:27:30.787Z,96887.31
2023-01-06T02:30:24.967Z,96883.16
2023-01-06T02:33:07.155Z,96873.75
2023-01-06T02:35:50.716Z,96874.56
2023-01-06T02:38:29.827Z,96867.78
2023-01-06T02:41:11.329Z,96878.47
2023-01-06T02:43:47.849Z,96866.56
2023-01-06T02:46:28.779Z,96861.41
2023-01-06T02:49:10.584Z,96857.94
2023-01-06T02:51:47.877Z,96855.44
2023-01-06T02:54:24.345Z,96864.34
2023-01-06T02:56:59.016Z,96852.94
2023-01-06T02:59:31.529Z,96854.78
2023-01-06T03:02:04.455Z,96848.50
2023-01-06T03:04:37.820Z,96847.00
2023-01-06T03:07:09.219Z,96849.78
2023-01-06T03:09:39.706Z,96840.34
2023-01-06T03:12:15.503Z,96847.72
2023-01-06T03:14:54.019Z,96840.94
2023-01-06T03:17:22.414Z,96839.44
2023-01-06T03:19:52.668Z,96846.50
2023-01-06T03:22:21.914Z,96841.34
2023-01-06T03:24:50.348Z,96843.63
2023-01-06T03:27:23.285Z,96839.63
2023-01-06T03:29:51.816Z,96837.94
2023-01-06T03:32:28.641Z,96836.56
2023-01-06T03:35:20.649Z,96842.13
2023-01-06T03:37:56.979Z,96845.91
2023-01-06T03:40:34.028Z,96833.16
2023-01-06T03:43:16.254Z,96839.00
2023-01-06T03:45:57.799Z,96839.41
2023-01-06T03:48:37.055Z,96842.34
2023-01-06T03:51:15.067Z,96850.56
2023-01-06T03:53:49.155Z,96852.38
2023-01-06T03:56:22.590Z,96834.16
2023-01-06T03:58:58.544Z,96839.59
2023-01-06T04:01:28.702Z,96833.50
2023-01-06T04:03:57.546Z,96840.72
2023-01-06T04:06:27.353Z,96826.13
2023-01-06T04:08:55.725Z,96824.44
2023-01-06T04:11:41.532Z,96832.34
2023-01-06T04:14:09.936Z,96840.44
2023-01-06T04:16:38.306Z,96833.34
2023-01-06T04:19:06.682Z,96833.22
2023-01-06T04:21:36.440Z,96819.03
2023-01-06T04:24:05.264Z,96831.25
2023-01-06T04:26:33.949Z,96833.03
2023-01-06T04:29:02.396Z,96841.94
2023-01-06T04:31:30.838Z,96842.09
2023-01-06T04:33:59.455Z,96840.56
2023-01-06T04:36:27.809Z,96840.03
2023-01-06T04:38:57.611Z,96838.78
2023-01-06T04:41:26.013Z,96833.78
2023-01-06T04:43:56.526Z,96839.50
2023-01-06T04:46:26.220Z,96840.59
2023-01-06T04:48:54.635Z,96839.06
2023-01-06T04:51:22.973Z,96836.59
2023-01-06T04:53:51.366Z,96843.81
2023-01-06T04:56:21.322Z,96841.31
2023-01-06T04:58:49.713Z,96845.22
2023-01-06T05:01:18.237Z,96843.66
2023-01-06T05:03:46.671Z,96858.78
2023-01-06T05:06:16.278Z,96849.50
2023-01-06T05:08:46.010Z,96848.13
2023-01-06T05:11:16.269Z,96850.88
2023-01-06T05:13:46.466Z,96847.00
2023-01-06T05:16:18.255Z,96855.75
2023-01-06T05:18:46.915Z,96850.63
2023-01-06T05:21:15.379Z,96851.44
2023-01-06T05:23:43.737Z,96853.81
2023-01-06T05:26:18.099Z,96852.97
2023-01-06T05:28:48.154Z,96847.56
2023-01-06T05:31:16.592Z,96847.44
2023-01-06T05:33:45.055Z,96850.75
2023-01-06T05:36:15.612Z,96848.25
2023-01-06T05:38:44.430Z,96842.03
2023-01-06T05:41:13.109Z,96848.25
2023-01-06T05:43:41.489Z,96852.56
2023-01-06T05:46:12.693Z,96852.84
2023-01-06T05:48:41.778Z,96853.66
2023-01-06T05:51:11.895Z,96854.63
2023-01-06T05:53:42.250Z,96849.50
2023-01-06T05:56:12.303Z,96854.09
2023-01-06T05:58:41.405Z,96851.72
2023-01-06T06:01:17.497Z,96855.34
2023-01-06T06:03:47.966Z,96855.19
2023-01-06T06:06:16.749Z,96849.38
2023-01-06T06:08:45.128Z,96853.25
2023-01-06T06:11:15.398Z,96851.88
2023-01-06T06:13:46.959Z,96851.31
2023-01-06T06:16:19.158Z,96852.38
2023-01-06T06:18:51.334Z,96859.47
2023-01-06T06:21:21.334Z,96857.13
2023-01-06T06:23:50.155Z,96851.16
2023-01-06T06:26:18.754Z,96861.69
2023-01-06T06:28:47.123Z,96856.56
2023-01-06T06:31:18.831Z,96852.38
2023-01-06T06:33:47.705Z,96854.88
2023-01-06T06:36:16.592Z,96850.72
2023-01-06T06:38:45.783Z,96850.88
2023-01-06T06:41:14.864Z,96859.88
2023-01-06T06:43:43.490Z,96853.78
2023-01-06T06:46:12.645Z,96846.84
2023-01-06T06:48:42.387Z,96856.25
2023-01-06T06:51:13.891Z,96850.28
2023-01-06T06:53:42.364Z,96849.72
2023-01-06T06:56:11.802Z,96853.34
2023-01-06T06:58:40.615Z,96857.78
2023-01-06T07:01:12.006Z,96861.50
2023-01-06T07:03:42.077Z,96856.41
2023-01-06T07:06:14.139Z,96851.25
2023-01-06T07:08:45.075Z,96859.16
2023-01-06T07:11:13.862Z,96859.28
2023-01-06T07:13:42.733Z,96860.13
2023-01-06T07:16:11.723Z,96863.72
2023-01-06T07:18:41.837Z,96863.72
2023-01-06T07:21:10.339Z,96851.81
2023-01-06T07:23:38.709Z,96853.47
2023-01-06T07:26:07.062Z,96853.47
2023-01-06T07:28:35.614Z,96847.38
2023-01-06T07:31:04.057Z,96849.00
2023-01-06T07:33:32.415Z,96844.59
2023-01-06T07:36:05.521Z,96846.25
2023-01-06T07:38:33.879Z,96836.03
2023-01-06T07:41:02.635Z,96837.66
2023-01-06T07:43:31.127Z,96830.59
2023-01-06T07:45:59.635Z,96837.66
2023-01-06T07:48:28.019Z,96841.00
2023-01-06T07:51:00.472Z,96837.41
2023-01-06T07:53:30.641Z,96833.91
2023-01-06T07:55:59.258Z,96833.78
2023-01-06T07:58:27.655Z,96834.50
2023-01-06T08:00:56.039Z,96836.28
2023-01-06T08:03:24.467Z,96827.72
2023-01-06T08:05:52.835Z,96832.84
2023-01-06T08:08:21.163Z,96838.50
2023-01-06T08:10:51.393Z,96826.59
2023-01-06T08:13:20.561Z,96827.72
2023-01-06T08:15:51.935Z,96824.84
2023-01-06T08:18:20.567Z,96820.09
2023-01-06T08:20:49.044Z,96825.94
2023-01-06T08:23:17.376Z,96817.91
2023-01-06T08:25:45.769Z,96821.91
2023-01-06T08:28:15.644Z,96818.03
2023-01-06T08:30:44.202Z,96821.09
2023-01-06T08:33:13.347Z,96813.63
2023-01-06T08:35:43.553Z,96812.63
2023-01-06T08:38:12.034Z,96815.94
2023-01-06T08:40:40.461Z,96815.00
2023-01-06T08:43:08.796Z,96822.59
2023-01-06T08:45:41.221Z,96814.56
2023-01-06T08:48:09.628Z,96826.63
2023-01-06T08:50:39.503Z,96836.19
2023-01-06T08:53:07.934Z,96833.56
2023-01-06T08:55:39.408Z,96838.56
2023-01-06T08:58:08.436Z,96844.22
2023-01-06T09:00:37.875Z,96844.22
2023-01-06T09:03:08.054Z,96842.72
2023-01-06T09:05:36.437Z,96841.34
2023-01-06T09:08:05.044Z,96835.94
2023-01-06T09:10:33.445Z,96834.00
2023-01-06T09:13:01.794Z,96843.53
2023-01-06T09:15:30.707Z,96843.53
2023-01-06T09:17:59.080Z,96835.38
2023-01-06T09:20:29.246Z,96832.28
2023-01-06T09:22:57.570Z,96837.31
2023-01-06T09:25:25.919Z,96843.81
2023-01-06T09:27:54.573Z,96845.75
2023-01-06T09:30:25.210Z,96851.28
2023-01-06T09:32:53.599Z,96851.00
2023-01-06T09:35:21.961Z,96855.69
2023-01-06T09:37:51.759Z,96858.72
2023-01-06T09:40:27.185Z,96860.84
2023-01-06T09:43:04.616Z,96858.72
2023-01-06T09:45:38.165Z,96863.88
2023-01-06T09:48:13.011Z,96865.25
2023-01-06T09:50:44.756Z,96870.66
2023-01-06T09:53:20.582Z,96870.75
2023-01-06T09:55:53.160Z,96883.25
2023-01-06T09:58:26.707Z,96864.47
2023-01-06T10:00:57.084Z,96863.91
2023-01-06T10:03:27.977Z,96869.41
2023-01-06T10:06:08.608Z,96862.19
2023-01-06T10:08:45.629Z,96861.59
2023-01-06T10:11:20.909Z,96858.38
2023-01-06T10:14:02.242Z,96858.22
2023-01-06T10:16:45.232Z,96857.63
2023-01-06T10:19:24.337Z,96849.28
2023-01-06T10:22:05.863Z,96846.88
2023-01-06T10:24:47.076Z,96843.22
2023-01-06T10:27:25.500Z,96855.53
2023-01-06T10:29:57.349Z,96862.84
2023-01-06T10:32:29.536Z,96857.78
2023-01-06T10:34:58.953Z,96858.88
2023-01-06T10:37:37.670Z,96864.91
2023-01-06T10:40:19.357Z,96859.53
2023-01-06T10:43:00.321Z,96858.34
2023-01-06T10:45:33.432Z,96846.69
2023-01-06T10:48:04.081Z,96849.38
2023-01-06T10:50:34.929Z,96849.38
2023-01-06T10:53:03.752Z,96851.88
2023-01-06T10:55:48.060Z,96849.28
2023-01-06T10:58:24.383Z,96843.94
2023-01-06T11:00:57.651Z,96826.69
2023-01-06T11:03:35.013Z,96835.69
2023-01-06T11:06:08.920Z,96833.13
2023-01-06T11:08:38.969Z,96839.66
2023-01-06T11:11:27.347Z,96831.22
2023-01-06T11:14:00.527Z,96831.72
2023-01-06T11:16:31.881Z,96831.59
2023-01-06T11:19:04.514Z,96829.00
2023-01-06T11:21:41.001Z,96822.72
2023-01-06T11:24:27.969Z,96824.09
2023-01-06T11:27:00.124Z,96817.97
2023-01-06T11:29:31.746Z,96815.50
2023-01-06T11:32:04.740Z,96818.81
2023-01-06T11:34:34.208Z,96825.44
2023-01-06T11:37:02.751Z,96826.13
2023-01-06T11:39:34.701Z,96816.53
2023-01-06T11:42:11.034Z,96812.72
2023-01-06T11:44:42.318Z,96819.34
2023-01-06T11:47:15.703Z,96810.56
2023-01-06T11:49:49.356Z,96815.22
2023-01-06T11:52:24.342Z,96820.50
2023-01-06T11:55:02.286Z,96808.69
2023-01-06T11:57:40.959Z,96808.69
2023-01-06T12:00:25.083Z,96813.31
2023-01-06T12:03:03.491Z,96814.59
2023-01-06T12:05:39.472Z,96815.59
2023-01-06T12:08:15.870Z,96811.91
2023-01-06T12:10:46.464Z,96806.13
2023-01-06T12:13:16.492Z,96802.59
2023-01-06T12:15:48.682Z,96805.38
2023-01-06T12:18:22.922Z,96794.44
2023-01-06T12:20:53.280Z,96800.88
2023-01-06T12:23:25.396Z,96794.88
2023-01-06T12:25:57.797Z,96796.66
2023-01-06T12:28:31.729Z,96795.31
2023-01-06T12:31:15.468Z,96796.47
2023-01-06T12:33:51.095Z,96779.81
2023-01-06T12:36:28.803Z,96780.63
2023-01-06T12:38:59.650Z,96774.31
2023-01-06T12:41:33.202Z,96781.28
2023-01-06T12:44:13.307Z,96777.47
2023-01-06T12:46:54.177Z,96771.31
2023-01-06T12:49:32.827Z,96782.16
2023-01-06T12:52:07.707Z,96770.41
2023-01-06T12:54:37.491Z,96774.47
2023-01-06T12:57:17.138Z,96776.41
2023-01-06T13:00:00.989Z,96767.19
2023-01-06T13:02:54.892Z,96757.72
2023-01-06T13:05:47.627Z,96763.19
2023-01-06T13:08:26.956Z,96762.72
2023-01-06T13:11:06.166Z,96765.13
2023-01-06T13:13:49.709Z,96756.44
2023-01-06T13:16:25.899Z,96764.41
2023-01-06T13:19:03.983Z,96756.19
2023-01-06T13:21:34.187Z,96761.63
2023-01-06T13:24:26.220Z,96755.69
2023-01-06T13:27:27.335Z,96746.09
2023-01-06T13:30:16.218Z,96748.88
2023-01-06T13:33:03.357Z,96746.91
2023-01-06T13:35:55.471Z,96740.56
2023-01-06T13:38:45.522Z,96742.47
2023-01-06T13:41:17.205Z,96740.00
2023-01-06T13:43:49.295Z,96735.53
2023-01-06T13:46:20.794Z,96740.44
2023-01-06T13:48:54.538Z,96734.41
2023-01-06T13:51:27.462Z,96741.97
2023-01-06T13:53:56.568Z,96740.34
2023-01-06T13:56:30.138Z,96744.41
2023-01-06T13:59:24.746Z,96751.09
2023-01-06T14:01:53.731Z,96746.91
2023-01-06T14:04:51.396Z,96744.97
2023-01-06T14:07:35.357Z,96750.66
2023-01-06T14:10:05.484Z,96754.72
2023-01-06T14:12:38.327Z,96758.34
2023-01-06T14:15:19.542Z,96762.22
2023-01-06T14:17:48.870Z,96760.31
2023-01-06T14:20:29.950Z,96761.53
2023-01-06T14:23:05.612Z,96766.38
2023-01-06T14:25:39.328Z,96772.31
2023-01-06T14:28:23.282Z,96767.25
2023-01-06T14:30:53.263Z,96773.84
2023-01-06T14:33:34.853Z,96782.25
2023-01-06T14:36:13.245Z,96774.69
2023-01-06T14:38:48.995Z,96779.44
2023-01-06T14:41:23.138Z,96783.13
2023-01-06T14:43:57.314Z,96782.72
2023-01-06T14:46:30.278Z,96783.13
2023-01-06T14:49:02.330Z,96778.03
2023-01-06T14:51:33.027Z,96779.69
2023-01-06T14:54:06.162Z,96782.41
2023-01-06T14:56:35.339Z,96788.94
2023-01-06T14:59:12.242Z,96786.66
2023-01-06T15:01:43.904Z,96786.88
2023-01-06T15:04:25.194Z,96784.41
2023-01-06T15:07:18.479Z,96780.81
2023-01-06T15:09:50.457Z,96784.00
2023-01-06T15:12:26.562Z,96777.56
2023-01-06T15:14:55.237Z,96775.75
2023-01-06T15:17:24.137Z,96774.13
2023-01-06T15:19:53.869Z,96772.59
2023-01-06T15:22:25.156Z,96783.53
2023-01-06T15:24:56.031Z,96794.59
2023-01-06T15:27:27.542Z,96788.47
2023-01-06T15:29:57.717Z,96782.16
2023-01-06T15:32:28.116Z,96782.97
2023-01-06T15:34:59.430Z,96776.63
2023-01-06T15:37:31.312Z,96780.09
2023-01-06T15:40:01.127Z,96777.78
2023-01-06T15:42:29.666Z,96780.75
2023-01-06T15:44:59.617Z,96781.53
2023-01-06T15:47:33.862Z,96780.88
2023-01-06T15:50:07.626Z,96779.53
2023-01-06T15:52:41.001Z,96772.44
2023-01-06T15:55:22.695Z,96777.91
2023-01-06T15:57:55.252Z,96778.50
2023-01-06T16:00:27.500Z,96782.81
2023-01-06T16:02:56.069Z,96780.31
2023-01-06T16:05:42.958Z,96780.09
2023-01-06T16:08:23.127Z,96776.13
2023-01-06T16:11:11.400Z,96783.34
2023-01-06T16:13:41.341Z,96784.00
2023-01-06T16:16:26.624Z,96801.47
2023-01-06T16:18:55.216Z,96801.25
2023-01-06T16:21:26.141Z,96805.84
2023-01-06T16:23:57.822Z,96807.16
2023-01-06T16:26:30.254Z,96812.22
2023-01-06T16:29:01.314Z,96820.78
2023-01-06T16:31:32.973Z,96823.72
2023-01-06T16:34:25.350Z,96837.94
2023-01-06T16:36:57.403Z,96841.88
2023-01-06T16:39:26.442Z,96840.19
2023-01-06T16:42:40.972Z,96846.97
2023-01-06T16:45:29.109Z,96848.94
2023-01-06T16:47:57.659Z,96847.97
2023-01-06T16:50:27.690Z,96851.44
2023-01-06T16:53:03.452Z,96859.38
2023-01-06T16:55:32.184Z,96861.34
2023-01-06T16:58:02.439Z,96866.56
2023-01-06T17:00:37.991Z,96864.81
2023-01-06T17:03:14.874Z,96868.75
2023-01-06T17:05:44.124Z,96872.97
2023-01-06T17:08:15.035Z,96879.13
2023-01-06T17:10:43.786Z,96874.25
2023-01-06T17:13:34.060Z,96877.44
2023-01-06T17:16:07.580Z,96888.09
2023-01-06T17:18:36.014Z,96885.41
2023-01-06T17:21:12.029Z,96885.44
2023-01-06T17:23:43.874Z,96898.19
2023-01-06T17:26:15.797Z,96896.25
2023-01-06T17:28:46.866Z,96901.13
2023-01-06T17:31:17.707Z,96899.63
2023-01-06T17:33:47.098Z,96905.75
2023-01-06T17:36:25.518Z,96916.84
2023-01-06T17:38:53.896Z,96910.88
2023-01-06T17:41:22.707Z,96921.97
2023-01-06T17:43:53.577Z,96919.50
2023-01-06T17:46:29.872Z,96928.69
2023-01-06T17:49:04.206Z,96924.25
2023-01-06T17:51:32.540Z,96938.66
2023-01-06T17:54:21.050Z,96939.91
2023-01-06T17:56:49.862Z,96932.00
2023-01-06T17:59:19.845Z,96942.09
2023-01-06T18:01:48.297Z,96944.06
2023-01-06T18:04:16.974Z,96948.78
2023-01-06T18:06:52.735Z,96954.19
2023-01-06T18:09:25.475Z,96955.56
2023-01-06T18:11:57.642Z,96944.59
2023-01-06T18:14:33.276Z,96954.72
2023-01-06T18:17:17.064Z,96949.88
2023-01-06T18:19:45.426Z,96955.31
2023-01-06T18:22:17.785Z,96953.91
2023-01-06T18:24:46.996Z,96953.91
2023-01-06T18:27:20.856Z,96957.66
2023-01-06T18:29:51.056Z,96960.56
2023-01-06T18:32:31.102Z,96964.91
2023-01-06T18:35:01.232Z,96963.06
2023-01-06T18:37:31.253Z,96962.41
2023-01-06T18:40:02.237Z,96964.22
2023-01-06T18:42:33.859Z,96967.53
2023-01-06T18:45:18.400Z,96971.25
2023-01-06T18:47:51.717Z,96965.72
2023-01-06T18:50:34.435Z,96962.63
2023-01-06T18:53:06.864Z,96963.31
2023-01-06T18:55:39.474Z,96963.06
2023-01-06T18:58:17.475Z,96959.16
2023-01-06T19:00:49.360Z,96961.34
2023-01-06T19:03:38.382Z,96961.06
2023-01-06T19:06:39.044Z,96967.19
2023-01-06T19:09:17.367Z,96964.69
2023-01-06T19:11:47.201Z,96969.81
2023-01-06T19:14:18.406Z,96965.22
2023-01-06T19:16:52.077Z,96962.72
2023-01-06T19:19:25.349Z,96965.81
2023-01-06T19:22:01.992Z,96960.84
2023-01-06T19:24:41.676Z,96964.00
2023-01-06T19:27:35.976Z,96967.47
2023-01-06T19:30:32.177Z,96962.47
2023-01-06T19:33:24.419Z,96954.84
2023-01-06T19:35:53.721Z,96950.53
2023-01-06T19:38:27.161Z,96953.31
2023-01-06T19:40:57.935Z,96956.09
2023-01-06T19:43:30.027Z,96946.81
2023-01-06T19:45:58.809Z,96948.91
2023-01-06T19:48:32.562Z,96949.75
2023-01-06T19:51:13.693Z,96946.94
2023-01-06T19:53:44.098Z,96937.38
2023-01-06T19:56:19.129Z,96935.88
2023-01-06T19:58:52.129Z,96934.31
2023-01-06T20:01:20.937Z,96938.91
2023-01-06T20:03:54.149Z,96928.66
2023-01-06T20:06:23.577Z,96933.94
2023-01-06T20:08:53.596Z,96933.50
2023-01-06T20:11:24.505Z,96932.09
2023-01-06T20:13:53.150Z,96928.06
2023-01-06T20:16:21.647Z,96933.03
2023-01-06T20:18:53.260Z,96927.63
2023-01-06T20:21:21.640Z,96921.53
2023-01-06T20:23:50.021Z,96927.47
2023-01-06T20:26:18.479Z,96928.31
2023-01-06T20:28:47.926Z,96924.84
2023-01-06T20:31:16.349Z,96927.75
2023-01-06T20:33:46.070Z,96927.06
2023-01-06T20:36:17.303Z,96930.56
2023-01-06T20:38:46.251Z,96920.84
2023-01-06T20:41:14.867Z,96925.13
2023-01-06T20:43:43.338Z,96925.13
2023-01-06T20:46:12.865Z,96922.47
2023-01-06T20:48:41.653Z,96925.41
2023-01-06T20:51:10.141Z,96922.91
2023-01-06T20:53:39.956Z,96917.66
2023-01-06T20:56:08.947Z,96921.97
2023-01-06T20:58:37.456Z,96913.19
2023-01-06T21:01:06.550Z,96909.88
2023-01-06T21:03:34.950Z,96916.13
2023-01-06T21:06:03.537Z,96910.69
2023-01-06T21:08:31.937Z,96907.38
2023-01-06T21:11:01.702Z,96909.19
2023-01-06T21:13:29.991Z,96910.84
2023-01-06T21:15:58.354Z,96908.91
2023-01-06T21:18:27.010Z,96912.91
2023-01-06T21:20:55.379Z,96900.28
2023-01-06T21:23:23.737Z,96896.94
2023-01-06T21:25:52.131Z,96897.22
2023-01-06T21:28:22.138Z,96891.25
2023-01-06T21:30:50.746Z,96895.25
2023-01-06T21:33:21.459Z,96890.00
2023-01-06T21:35:50.201Z,96884.84
2023-01-06T21:38:18.692Z,96877.38
2023-01-06T21:40:47.253Z,96893.34
2023-01-06T21:43:14.914Z,96887.78
2023-01-06T21:45:45.779Z,96890.56
2023-01-06T21:48:14.722Z,96887.38
2023-01-06T21:50:44.892Z,96891.56
2023-01-06T21:53:15.257Z,96886.72
2023-01-06T21:55:43.618Z,96887.16
2023-01-06T21:58:12.001Z,96890.22
2023-01-06T22:00:40.416Z,96884.41
2023-01-06T22:03:10.276Z,96884.56
2023-01-06T22:05:38.802Z,96889.28
2023-01-06T22:08:08.480Z,96887.91
2023-01-06T22:10:40.335Z,96886.53
2023-01-06T22:13:10.490Z,96889.69
2023-01-06T22:15:39.013Z,96888.97
2023-01-06T22:18:09.996Z,96886.34
2023-01-06T22:20:38.873Z,96890.09
2023-01-06T22:23:11.043Z,96889.28
2023-01-06T22:25:40.164Z,96891.94
2023-01-06T22:28:08.983Z,96890.38
2023-01-06T22:30:37.626Z,96893.44
2023-01-06T22:33:06.087Z,96886.38
2023-01-06T22:35:35.883Z,96890.69
2023-01-06T22:38:04.252Z,96882.09
2023-01-06T22:40:32.584Z,96887.34
2023-01-06T22:43:00.900Z,96883.16
2023-01-06T22:45:29.306Z,96881.53
2023-01-06T22:47:57.611Z,96881.78
2023-01-06T22:50:26.097Z,96882.91
2023-01-06T22:52:56.865Z,96878.59
2023-01-06T22:55:25.369Z,96879.28
2023-01-06T22:57:53.712Z,96875.00
2023-01-06T23:00:22.170Z,96880.41
2023-01-06T23:02:50.638Z,96877.66
2023-01-06T23:05:19.293Z,96874.44
2023-01-06T23:07:47.628Z,96877.53
2023-01-06T23:10:17.377Z,96862.09
2023-01-06T23:12:45.808Z,96869.31
2023-01-06T23:15:14.173Z,96865.31
2023-01-06T23:17:42.477Z,96865.88
2023-01-06T23:20:11.957Z,96857.53
2023-01-06T23:22:40.458Z,96862.41
2023-01-06T23:25:09.448Z,96856.59
2023-01-06T23:27:39.416Z,96860.34
2023-01-06T23:30:10.333Z,96859.22
2023-01-06T23:32:38.641Z,96857.41
2023-01-06T23:35:07.646Z,96861.69
2023-01-06T23:37:36.167Z,96850.72
2023-01-06T23:40:04.837Z,96858.31
2023-01-06T23:42:37.472Z,96849.03
2023-01-06T23:45:14.038Z,96850.16
2023-01-06T23:47:42.603Z,96849.59
2023-01-06T23:50:10.946Z,96850.69
2023-01-06T23:52:39.328Z,96852.50
2023-01-06T23:55:08.326Z,96844.75
2023-01-06T23:57:36.654Z,96849.44
